createdAt,value
2018-05-14T00:01:06.874Z,6.63
2018-05-14T00:03:35.013Z,5.90
2018-05-14T00:06:03.157Z,5.17
2018-05-14T00:08:31.269Z,6.37
2018-05-14T00:11:00.143Z,8.20
2018-05-14T00:13:28.200Z,5.93
2018-05-14T00:15:56.256Z,4.30
2018-05-14T00:18:25.079Z,5.63
2018-05-14T00:20:53.120Z,4.70
2018-05-14T00:23:21.217Z,5.83
2018-05-14T00:25:49.298Z,7.97
2018-05-14T00:28:17.388Z,8.50
2018-05-14T00:30:46.173Z,8.47
2018-05-14T00:33:15.024Z,7.43
2018-05-14T00:35:43.008Z,7.10
2018-05-14T00:38:11.016Z,6.43
2018-05-14T00:40:39.044Z,5.77
2018-05-14T00:43:07.064Z,8.20
2018-05-14T00:45:35.108Z,8.67
2018-05-14T00:48:03.403Z,7.57
2018-05-14T00:50:32.191Z,7.53
2018-05-14T00:53:01.013Z,7.13
2018-05-14T00:55:29.050Z,6.97
2018-05-14T00:57:57.951Z,7.20
2018-05-14T01:00:26.013Z,7.13
2018-05-14T01:02:54.863Z,6.53
2018-05-14T01:05:22.895Z,6.40
2018-05-14T01:07:50.989Z,8.73
2018-05-14T01:10:19.072Z,6.50
2018-05-14T01:12:47.153Z,5.83
2018-05-14T01:15:15.149Z,7.00
2018-05-14T01:17:43.901Z,5.30
2018-05-14T01:20:11.905Z,7.93
2018-05-14T01:22:40.672Z,5.57
2018-05-14T01:25:08.790Z,5.73
2018-05-14T01:27:36.874Z,6.30
2018-05-14T01:30:05.012Z,5.73
2018-05-14T01:32:33.915Z,6.53
2018-05-14T01:35:02.709Z,5.93
2018-05-14T01:37:31.507Z,7.57
2018-05-14T01:39:59.543Z,9.40
2018-05-14T01:42:27.555Z,6.87
2018-05-14T01:44:55.544Z,6.87
2018-05-14T01:47:23.640Z,6.70
2018-05-14T01:49:51.680Z,6.67
2018-05-14T01:52:19.691Z,8.17
2018-05-14T01:54:47.788Z,6.97
2018-05-14T01:57:16.549Z,7.37
2018-05-14T01:59:44.603Z,8.43
2018-05-14T02:02:12.661Z,9.33
2018-05-14T02:04:40.785Z,9.10
2018-05-14T02:07:09.558Z,8.03
2018-05-14T02:09:37.642Z,7.93
2018-05-14T02:12:05.675Z,11.83
2018-05-14T02:14:33.694Z,8.80
2018-05-14T02:17:02.536Z,9.67
2018-05-14T02:19:30.586Z,9.57
2018-05-14T02:21:58.633Z,8.73
2018-05-14T02:24:27.410Z,9.40
2018-05-14T02:26:55.392Z,8.67
2018-05-14T02:29:24.258Z,8.60
2018-05-14T02:31:52.374Z,9.13
2018-05-14T02:34:20.380Z,9.60
2018-05-14T02:36:48.412Z,8.63
2018-05-14T02:39:16.519Z,8.23
2018-05-14T02:41:44.537Z,10.37
2018-05-14T02:44:13.309Z,8.67
2018-05-14T02:46:41.332Z,8.67
2018-05-14T02:49:09.424Z,9.37
2018-05-14T02:51:37.496Z,9.53
2018-05-14T02:54:05.555Z,11.80
2018-05-14T02:56:33.674Z,10.70
2018-05-14T02:59:01.712Z,9.60
2018-05-14T03:01:29.721Z,9.33
2018-05-14T03:03:58.465Z,10.20
2018-05-14T03:06:26.517Z,9.10
2018-05-14T03:08:54.575Z,9.87
2018-05-14T03:11:22.613Z,9.13
2018-05-14T03:13:50.684Z,9.17
2018-05-14T03:16:18.728Z,9.57
2018-05-14T03:18:46.836Z,9.83
2018-05-14T03:21:15.784Z,9.73
2018-05-14T03:23:43.816Z,11.53
2018-05-14T03:26:12.723Z,9.37
2018-05-14T03:28:40.824Z,10.13
2018-05-14T03:31:08.837Z,8.80
2018-05-14T03:33:37.715Z,8.13
2018-05-14T03:36:05.740Z,10.07
2018-05-14T03:38:33.919Z,8.40
2018-05-14T03:41:02.000Z,8.27
2018-05-14T03:43:30.008Z,8.10
2018-05-14T03:45:58.168Z,7.97
2018-05-14T03:48:26.124Z,7.70
2018-05-14T03:50:54.212Z,7.90
2018-05-14T03:53:22.297Z,7.70
2018-05-14T03:55:51.084Z,7.27
2018-05-14T03:58:30.954Z,10.60
2018-05-14T04:01:16.605Z,6.97
2018-05-14T04:03:56.498Z,7.70
2018-05-14T04:06:37.468Z,7.43
2018-05-14T04:09:06.475Z,8.53
2018-05-14T04:11:34.556Z,9.33
2018-05-14T04:14:02.795Z,8.07
2018-05-14T04:16:31.644Z,8.53
2018-05-14T04:18:59.712Z,9.37
2018-05-14T04:21:27.787Z,11.43
2018-05-14T04:23:55.849Z,9.10
2018-05-14T04:26:23.808Z,8.30
2018-05-14T04:28:51.858Z,8.17
2018-05-14T04:31:20.724Z,7.17
2018-05-14T04:33:49.599Z,6.90
2018-05-14T04:36:17.622Z,6.77
2018-05-14T04:38:45.695Z,8.93
2018-05-14T04:41:13.726Z,9.27
2018-05-14T04:43:41.716Z,7.87
2018-05-14T04:46:10.609Z,8.30
2018-05-14T04:48:39.358Z,8.43
2018-05-14T04:51:07.344Z,7.00
2018-05-14T04:53:35.391Z,10.40
2018-05-14T04:56:03.411Z,8.37
2018-05-14T04:58:31.511Z,7.17
2018-05-14T05:00:59.568Z,7.67
2018-05-14T05:03:27.620Z,8.07
2018-05-14T05:05:56.535Z,7.43
2018-05-14T05:08:24.702Z,9.80
2018-05-14T05:10:52.708Z,7.17
2018-05-14T05:13:20.750Z,6.63
2018-05-14T05:15:48.793Z,7.37
2018-05-14T05:18:17.581Z,9.03
2018-05-14T05:20:46.413Z,8.53
2018-05-14T05:23:15.180Z,7.47
2018-05-14T05:25:43.183Z,8.23
2018-05-14T05:28:11.251Z,7.70
2018-05-14T05:30:39.336Z,6.73
2018-05-14T05:33:07.340Z,7.43
2018-05-14T05:35:36.246Z,6.10
2018-05-14T05:38:05.042Z,6.33
2018-05-14T05:40:33.882Z,7.83
2018-05-14T05:43:01.987Z,7.77
2018-05-14T05:45:30.867Z,8.27
2018-05-14T05:47:58.824Z,8.03
2018-05-14T05:50:26.913Z,7.17
2018-05-14T05:52:55.040Z,8.60
2018-05-14T05:55:23.038Z,6.87
2018-05-14T05:57:51.012Z,6.40
2018-05-14T06:00:19.110Z,6.27
2018-05-14T06:02:47.881Z,6.83
2018-05-14T06:05:16.017Z,6.00
2018-05-14T06:07:44.144Z,5.87
2018-05-14T06:10:13.031Z,8.10
2018-05-14T06:12:41.090Z,6.23
2018-05-14T06:15:09.334Z,7.27
2018-05-14T06:17:38.129Z,7.03
2018-05-14T06:20:06.284Z,7.97
2018-05-14T06:22:34.412Z,9.30
2018-05-14T06:25:03.291Z,8.80
2018-05-14T06:27:31.354Z,7.27
2018-05-14T06:29:59.418Z,8.40
2018-05-14T06:32:27.429Z,9.87
2018-05-14T06:34:56.176Z,10.70
2018-05-14T06:37:24.286Z,11.40
2018-05-14T06:39:53.093Z,8.03
2018-05-14T06:42:21.151Z,7.67
2018-05-14T06:44:50.115Z,10.00
2018-05-14T06:47:18.958Z,8.37
2018-05-14T06:49:47.078Z,10.77
2018-05-14T06:52:15.147Z,10.60
2018-05-14T06:54:43.214Z,10.47
2018-05-14T06:57:11.291Z,12.53
2018-05-14T06:59:39.365Z,15.63
2018-05-14T07:02:07.400Z,17.43
2018-05-14T07:04:35.488Z,22.07
2018-05-14T07:07:03.651Z,22.90
2018-05-14T07:09:31.709Z,25.57
2018-05-14T07:11:59.799Z,25.23
2018-05-14T07:14:27.813Z,25.53
2018-05-14T07:16:55.937Z,25.57
2018-05-14T07:19:24.040Z,24.73
2018-05-14T07:21:52.182Z,25.93
2018-05-14T07:24:20.180Z,33.07
2018-05-14T07:26:48.288Z,33.57
2018-05-14T07:29:17.120Z,31.07
2018-05-14T07:31:45.132Z,33.97
2018-05-14T07:34:13.184Z,37.00
2018-05-14T07:36:43.049Z,33.50
2018-05-14T07:39:11.122Z,32.97
2018-05-14T07:41:39.190Z,33.43
2018-05-14T07:44:08.009Z,29.33
2018-05-14T07:46:36.048Z,29.17
2018-05-14T07:49:04.885Z,26.00
2018-05-14T07:51:32.996Z,22.93
2018-05-14T07:54:01.943Z,23.40
2018-05-14T07:56:30.035Z,24.17
2018-05-14T07:58:58.199Z,20.27
2018-05-14T08:01:26.225Z,20.40
2018-05-14T08:03:55.034Z,19.47
2018-05-14T08:06:23.060Z,18.90
2018-05-14T08:08:51.878Z,16.33
2018-05-14T08:11:20.003Z,19.17
2018-05-14T08:13:48.087Z,16.23
2018-05-14T08:16:16.203Z,16.20
2018-05-14T08:18:45.239Z,17.80
2018-05-14T08:21:13.307Z,16.73
2018-05-14T08:23:41.413Z,16.77
2018-05-14T08:26:10.248Z,19.30
2018-05-14T08:28:38.285Z,17.47
2018-05-14T08:31:07.080Z,14.77
2018-05-14T08:33:35.849Z,13.23
2018-05-14T08:36:03.940Z,11.60
2018-05-14T08:38:32.823Z,12.97
2018-05-14T08:41:01.769Z,11.50
2018-05-14T08:43:29.756Z,9.00
2018-05-14T08:45:57.791Z,10.00
2018-05-14T08:48:25.807Z,8.70
2018-05-14T08:50:53.894Z,7.90
2018-05-14T08:53:22.760Z,7.30
2018-05-14T08:55:50.856Z,7.47
2018-05-14T08:58:19.699Z,6.97
2018-05-14T09:00:47.915Z,4.30
2018-05-14T09:03:16.037Z,5.57
2018-05-14T09:05:44.048Z,5.53
2018-05-14T09:08:12.103Z,6.37
2018-05-14T09:10:40.201Z,6.00
2018-05-14T09:13:08.208Z,5.17
2018-05-14T09:15:36.229Z,5.47
2018-05-14T09:18:04.284Z,4.97
2018-05-14T09:20:32.343Z,5.20
2018-05-14T09:23:00.355Z,5.80
2018-05-14T09:25:28.418Z,6.80
2018-05-14T09:27:56.689Z,6.60
2018-05-14T09:30:24.810Z,7.67
2018-05-14T09:32:52.923Z,7.60
2018-05-14T09:35:21.042Z,8.23
2018-05-14T09:37:49.795Z,8.70
2018-05-14T09:40:17.874Z,16.33
2018-05-14T09:42:45.958Z,17.03
2018-05-14T09:45:14.096Z,17.27
2018-05-14T09:47:42.161Z,17.20
2018-05-14T09:50:10.220Z,18.13
2018-05-14T09:52:38.204Z,20.57
2018-05-14T09:55:06.259Z,23.77
2018-05-14T09:57:34.321Z,24.40
2018-05-14T10:00:02.403Z,20.33
2018-05-14T10:02:30.423Z,16.53
2018-05-14T10:04:58.444Z,17.87
2018-05-14T10:07:26.531Z,17.57
2018-05-14T10:09:54.560Z,20.83
2018-05-14T10:12:23.382Z,19.10
2018-05-14T10:14:52.156Z,19.03
2018-05-14T10:17:20.252Z,20.63
2018-05-14T10:19:48.388Z,21.63
2018-05-14T10:22:17.275Z,23.43
2018-05-14T10:24:46.162Z,25.30
2018-05-14T10:27:14.280Z,23.40
2018-05-14T10:29:42.334Z,24.70
2018-05-14T10:32:10.416Z,26.70
2018-05-14T10:34:38.465Z,28.87
2018-05-14T10:37:07.273Z,25.90
2018-05-14T10:39:35.261Z,27.57
2018-05-14T10:42:03.282Z,25.57
2018-05-14T10:44:32.088Z,25.07
2018-05-14T10:47:00.132Z,27.27
2018-05-14T10:49:28.208Z,23.30
2018-05-14T10:51:57.091Z,26.03
2018-05-14T10:54:25.185Z,27.90
2018-05-14T10:56:53.995Z,26.40
2018-05-14T10:59:21.972Z,28.42
2018-05-14T11:01:50.090Z,24.57
2018-05-14T11:04:18.140Z,24.20
2018-05-14T11:06:46.256Z,22.57
2018-05-14T11:09:15.260Z,18.20
2018-05-14T11:11:44.163Z,19.30
2018-05-14T11:14:12.262Z,15.82
2018-05-14T11:16:40.324Z,15.30
2018-05-14T11:19:08.475Z,16.10
2018-05-14T11:21:36.539Z,15.97
2018-05-14T11:24:05.396Z,19.80
2018-05-14T11:26:33.482Z,19.90
2018-05-14T11:29:01.612Z,19.97
2018-05-14T11:31:29.698Z,21.13
2018-05-14T11:33:57.756Z,20.87
2018-05-14T11:36:25.809Z,22.17
2018-05-14T11:38:53.901Z,19.93
2018-05-14T11:41:22.739Z,20.37
2018-05-14T11:43:51.650Z,17.80
2018-05-14T11:46:20.469Z,16.43
2018-05-14T11:48:48.624Z,17.00
2018-05-14T11:51:16.634Z,16.33
2018-05-14T11:53:44.739Z,17.03
2018-05-14T11:56:13.560Z,18.50
2018-05-14T11:58:41.545Z,16.00
2018-05-14T12:01:09.632Z,15.20
2018-05-14T12:03:37.696Z,13.77
2018-05-14T12:06:05.737Z,13.62
2018-05-14T12:08:33.848Z,12.63
2018-05-14T12:11:01.952Z,15.77
2018-05-14T12:13:30.748Z,16.37
2018-05-14T12:15:59.664Z,13.93
2018-05-14T12:18:27.641Z,13.53
2018-05-14T12:20:55.750Z,14.17
2018-05-14T12:23:23.801Z,13.23
2018-05-14T12:25:51.852Z,13.63
2018-05-14T12:28:19.910Z,12.03
2018-05-14T12:30:48.774Z,12.30
2018-05-14T12:33:16.800Z,12.07
2018-05-14T12:35:44.928Z,13.47
2018-05-14T12:38:13.769Z,11.97
2018-05-14T12:40:42.566Z,11.57
2018-05-14T12:43:10.529Z,11.70
2018-05-14T12:45:38.502Z,11.17
2018-05-14T12:48:06.548Z,10.47
2018-05-14T12:50:34.588Z,10.83
2018-05-14T12:53:02.576Z,10.83
2018-05-14T12:55:31.373Z,12.03
2018-05-14T12:57:59.439Z,9.17
2018-05-14T13:00:28.204Z,8.33
2018-05-14T13:02:56.254Z,7.30
2018-05-14T13:05:24.304Z,8.73
2018-05-14T13:07:52.383Z,8.90
2018-05-14T13:10:20.398Z,8.10
2018-05-14T13:12:49.234Z,8.45
2018-05-14T13:15:17.268Z,7.70
2018-05-14T13:17:46.076Z,6.73
2018-05-14T13:20:14.128Z,7.23
2018-05-14T13:22:42.962Z,7.07
2018-05-14T13:25:11.031Z,6.50
2018-05-14T13:27:39.188Z,6.82
2018-05-14T13:30:09.366Z,5.33
2018-05-14T13:32:37.475Z,4.83
2018-05-14T13:35:05.572Z,3.77
2018-05-14T13:37:33.710Z,4.37
2018-05-14T13:40:01.809Z,3.67
2018-05-14T13:42:29.946Z,3.63
2018-05-14T13:44:58.745Z,3.00
2018-05-14T13:47:26.750Z,3.43
2018-05-14T13:49:54.817Z,2.87
2018-05-14T13:52:22.849Z,2.60
2018-05-14T13:54:51.669Z,2.93
2018-05-14T13:57:19.722Z,2.87
2018-05-14T13:59:51.735Z,2.70
2018-05-14T14:02:19.882Z,4.60
2018-05-14T14:04:47.885Z,4.10
2018-05-14T14:07:15.965Z,3.07
2018-05-14T14:09:44.067Z,4.97
2018-05-14T14:12:12.839Z,2.33
2018-05-14T14:14:40.944Z,4.13
2018-05-14T14:17:09.090Z,2.13
2018-05-14T14:19:37.115Z,4.27
2018-05-14T14:22:05.262Z,3.75
2018-05-14T14:24:34.045Z,4.73
2018-05-14T14:27:02.807Z,3.87
2018-05-14T14:29:30.851Z,2.80
2018-05-14T14:31:58.939Z,5.80
2018-05-14T14:34:26.996Z,2.10
2018-05-14T14:36:55.043Z,1.80
2018-05-14T14:39:23.112Z,2.53
2018-05-14T14:41:51.180Z,2.30
2018-05-14T14:44:19.211Z,2.53
2018-05-14T14:46:47.325Z,2.40
2018-05-14T14:49:15.538Z,2.87
2018-05-14T14:51:43.560Z,4.33
2018-05-14T14:54:11.659Z,3.40
2018-05-14T14:56:39.739Z,7.07
2018-05-14T14:59:07.791Z,7.50
2018-05-14T15:01:35.809Z,9.00
2018-05-14T15:04:03.812Z,7.87
2018-05-14T15:06:32.622Z,8.10
2018-05-14T15:09:00.590Z,6.23
2018-05-14T15:11:28.734Z,6.70
2018-05-14T15:13:57.528Z,5.70
2018-05-14T15:16:26.300Z,5.57
2018-05-14T15:18:54.304Z,5.10
2018-05-14T15:21:22.466Z,4.40
2018-05-14T15:23:51.338Z,6.33
2018-05-14T15:26:20.083Z,5.93
2018-05-14T15:28:48.146Z,5.93
2018-05-14T15:31:16.191Z,3.77
2018-05-14T15:33:44.988Z,8.10
2018-05-14T15:36:13.081Z,7.00
2018-05-14T15:38:41.185Z,4.63
2018-05-14T15:41:09.308Z,4.83
2018-05-14T15:43:37.414Z,3.37
2018-05-14T15:46:05.422Z,4.90
2018-05-14T15:48:34.260Z,3.70
2018-05-14T15:51:02.268Z,3.47
2018-05-14T15:53:30.253Z,3.70
2018-05-14T15:55:59.067Z,3.67
2018-05-14T15:58:27.222Z,3.90
2018-05-14T16:00:56.054Z,3.00
2018-05-14T16:03:24.115Z,4.03
2018-05-14T16:05:52.300Z,5.13
2018-05-14T16:08:20.294Z,3.10
2018-05-14T16:10:48.395Z,3.80
2018-05-14T16:13:17.308Z,3.10
2018-05-14T16:15:45.319Z,4.20
2018-05-14T16:18:13.426Z,4.83
2018-05-14T16:20:41.562Z,2.93
2018-05-14T16:23:09.622Z,5.53
2018-05-14T16:25:37.645Z,3.30
2018-05-14T16:28:06.522Z,4.73
2018-05-14T16:30:34.556Z,3.63
2018-05-14T16:33:03.448Z,4.50
2018-05-14T16:35:31.573Z,3.57
2018-05-14T16:38:00.478Z,4.70
2018-05-14T16:40:29.328Z,2.73
2018-05-14T16:42:57.367Z,2.30
2018-05-14T16:45:25.506Z,3.03
2018-05-14T16:47:54.314Z,2.40
2018-05-14T16:50:22.407Z,4.30
2018-05-14T16:52:50.520Z,2.80
2018-05-14T16:55:18.587Z,2.90
2018-05-14T16:57:46.683Z,2.60
2018-05-14T17:00:14.702Z,3.30
2018-05-14T17:02:42.721Z,2.73
2018-05-14T17:05:11.528Z,2.70
2018-05-14T17:07:40.414Z,2.53
2018-05-14T17:10:09.243Z,2.90
2018-05-14T17:12:37.253Z,11.77
2018-05-14T17:15:05.387Z,10.07
2018-05-14T17:17:33.452Z,4.53
2018-05-14T17:20:01.633Z,4.83
2018-05-14T17:22:29.656Z,3.47
2018-05-14T17:24:58.483Z,4.20
2018-05-14T17:27:26.548Z,3.60
2018-05-14T17:29:54.599Z,4.43
2018-05-14T17:32:22.657Z,3.20
2018-05-14T17:34:51.462Z,5.47
2018-05-14T17:37:20.269Z,6.23
2018-05-14T17:39:48.248Z,3.87
2018-05-14T17:42:16.300Z,3.30
2018-05-14T17:44:44.412Z,5.23
2018-05-14T17:47:12.447Z,4.17
2018-05-14T17:49:40.508Z,2.90
2018-05-14T17:52:09.273Z,6.63
2018-05-14T17:54:37.280Z,3.77
2018-05-14T17:57:05.394Z,4.97
2018-05-14T17:59:33.498Z,5.10
2018-05-14T18:02:01.533Z,7.63
2018-05-14T18:04:29.604Z,6.17
2018-05-14T18:06:57.637Z,6.77
2018-05-14T18:09:25.675Z,7.07
2018-05-14T18:11:53.740Z,4.73
2018-05-14T18:14:21.745Z,5.63
2018-05-14T18:16:50.573Z,5.23
2018-05-14T18:19:18.698Z,4.70
2018-05-14T18:21:48.667Z,6.17
2018-05-14T18:24:16.729Z,6.57
2018-05-14T18:26:46.678Z,6.13
2018-05-14T18:29:20.480Z,4.40
2018-05-14T18:31:54.131Z,5.37
2018-05-14T18:34:27.968Z,5.40
2018-05-14T18:36:56.003Z,4.30
2018-05-14T18:39:24.063Z,5.47
2018-05-14T18:41:52.984Z,5.13
2018-05-14T18:44:26.494Z,4.73
2018-05-14T18:46:54.529Z,7.77
2018-05-14T18:49:23.311Z,6.77
2018-05-14T18:51:52.257Z,5.37
2018-05-14T18:54:20.361Z,4.60
2018-05-14T18:56:48.487Z,7.60
2018-05-14T18:59:17.323Z,5.77
2018-05-14T19:01:45.357Z,4.47
2018-05-14T19:04:13.389Z,7.10
2018-05-14T19:06:42.184Z,5.00
2018-05-14T19:09:10.262Z,6.27
2018-05-14T19:11:44.028Z,4.93
2018-05-14T19:14:12.064Z,5.80
2018-05-14T19:16:45.628Z,5.47
2018-05-14T19:19:14.392Z,5.00
2018-05-14T19:21:42.398Z,6.03
2018-05-14T19:24:10.483Z,5.47
2018-05-14T19:26:38.568Z,4.90
2018-05-14T19:29:12.132Z,5.77
2018-05-14T19:31:40.902Z,5.37
2018-05-14T19:34:15.464Z,9.07
2018-05-14T19:36:43.538Z,7.37
2018-05-14T19:39:12.413Z,7.77
2018-05-14T19:41:40.504Z,8.03
2018-05-14T19:44:09.288Z,6.47
2018-05-14T19:46:37.305Z,6.00
2018-05-14T19:49:05.407Z,7.87
2018-05-14T19:51:34.228Z,6.90
2018-05-14T19:54:02.316Z,5.83
2018-05-14T19:56:30.412Z,5.47
2018-05-14T19:58:58.460Z,8.03
2018-05-14T20:01:26.509Z,6.47
2018-05-14T20:03:54.557Z,7.63
2018-05-14T20:06:23.404Z,6.90
2018-05-14T20:08:51.491Z,6.90
2018-05-14T20:11:19.592Z,6.57
2018-05-14T20:13:48.456Z,6.70
2018-05-14T20:16:16.464Z,6.27
2018-05-14T20:18:44.492Z,6.80
2018-05-14T20:21:12.505Z,7.47
2018-05-14T20:23:41.376Z,6.37
2018-05-14T20:26:10.172Z,6.73
2018-05-14T20:28:39.015Z,7.83
2018-05-14T20:31:07.104Z,7.67
2018-05-14T20:33:35.147Z,7.40
2018-05-14T20:36:03.137Z,8.77
2018-05-14T20:38:31.225Z,7.80
2018-05-14T20:40:59.232Z,7.23
2018-05-14T20:43:27.249Z,6.77
2018-05-14T20:45:55.251Z,8.53
2018-05-14T20:48:24.755Z,11.13
2018-05-14T20:50:53.596Z,8.03
2018-05-14T20:53:21.657Z,8.07
2018-05-14T20:55:49.654Z,8.27
2018-05-14T20:58:17.760Z,9.87
2018-05-14T21:00:46.527Z,8.60
2018-05-14T21:03:14.599Z,8.07
2018-05-14T21:05:42.753Z,8.47
2018-05-14T21:08:10.794Z,7.57
2018-05-14T21:10:38.937Z,8.37
2018-05-14T21:13:07.700Z,8.97
2018-05-14T21:15:35.764Z,8.03
2018-05-14T21:18:03.840Z,10.47
2018-05-14T21:20:31.885Z,9.17
2018-05-14T21:23:00.009Z,8.57
2018-05-14T21:25:28.043Z,8.60
2018-05-14T21:27:56.133Z,7.63
2018-05-14T21:30:24.113Z,7.03
2018-05-14T21:32:52.219Z,9.17
2018-05-14T21:35:21.008Z,7.07
2018-05-14T21:37:49.822Z,6.90
2018-05-14T21:40:17.839Z,8.07
2018-05-14T21:42:45.881Z,8.43
2018-05-14T21:45:13.919Z,7.77
2018-05-14T21:47:41.979Z,9.10
2018-05-14T21:50:10.895Z,7.80
2018-05-14T21:52:38.887Z,7.53
2018-05-14T21:55:06.993Z,10.07
2018-05-14T21:57:35.013Z,7.87
2018-05-14T22:00:03.386Z,8.67
2018-05-14T22:02:31.464Z,9.47
2018-05-14T22:04:59.508Z,9.80
2018-05-14T22:19:03.372Z,10.20
2018-05-14T22:21:31.469Z,12.37
2018-05-14T22:24:00.296Z,12.53
2018-05-14T22:26:28.422Z,11.17
2018-05-14T22:28:57.363Z,10.90
2018-05-14T22:31:25.379Z,11.17
2018-05-14T22:33:54.274Z,12.30
2018-05-14T22:45:03.486Z,11.20
2018-05-14T22:47:31.546Z,8.57
2018-05-14T22:50:00.336Z,8.47
2018-05-14T22:52:29.285Z,11.17
2018-05-14T22:54:57.341Z,9.43
2018-05-14T22:57:25.401Z,9.90
2018-05-14T22:59:53.561Z,10.13
2018-05-14T23:02:21.626Z,11.23
2018-05-14T23:04:49.760Z,10.57
2018-05-14T23:07:17.849Z,10.17
2018-05-14T23:09:46.668Z,12.07
2018-05-14T23:12:14.769Z,11.13
2018-05-14T23:14:42.859Z,12.10
2018-05-14T23:17:10.918Z,12.20
2018-05-14T23:19:38.970Z,10.40
2018-05-14T23:22:07.149Z,12.50
2018-05-14T23:24:35.270Z,9.53
2018-05-14T23:27:03.360Z,6.77
2018-05-14T23:29:32.158Z,9.60
2018-05-14T23:32:00.186Z,8.53
2018-05-14T23:34:28.227Z,7.00
2018-05-14T23:36:56.369Z,4.83
2018-05-14T23:39:25.211Z,8.43
2018-05-14T23:41:53.291Z,6.93
2018-05-14T23:44:21.422Z,9.17
2018-05-14T23:46:49.547Z,7.57
2018-05-14T23:49:17.655Z,6.83
2018-05-14T23:51:46.487Z,6.37
2018-05-14T23:54:14.556Z,8.00
2018-05-14T23:56:42.582Z,9.00
2018-05-14T23:59:11.403Z,8.23
